• Join FlightAware (Why Join?)
  • Login
  • US Flag 
07:29AM EST


 

Airport Tracker/Info


-or-


 

Live Flight TrackerFlight Track Log ✈ N3H ✈ 20-Oct-2013 ✈ EGNM / LBA - KILM

Flight Track Log - Related Links

Times and Time Zones

All times are in EDT time to prevent confusion due to time zone crossing. See the N3H flight status page for this flight to view local times or setup timezone preferences in your user account.

Time Position Orientation Groundspeed Altitude Reporting Facility
EDT Latitude Longitude Course Direction KTS MPH feet Rate Location/Type
04:10PM 54.0667 -54.0667 202° Southwest 430 495 43,000  Level Moncton Center
04:11PM 54.0500 -54.2167 259° West 430 495 43,000  Level Gander Center
04:12PM 53.9833 -54.4167 241° Southwest 440 506 43,000  Level Gander Center
04:13PM 53.9500 -54.6000 253° West 440 506 43,000  Level Gander Center
04:14PM 53.8833 -54.7833 238° Southwest 440 506 43,000  Level Gander Center
04:15PM 49.8054 -50.0311 202° Southwest  Level Estimated
04:15PM 53.8500 -54.9833 254° West 440 506 43,000  Level Gander Center
04:16PM 53.8000 -55.1667 245° Southwest 430 495 43,000  Level Gander Center
04:17PM 53.7333 -55.3500 238° Southwest 430 495 43,000  Level Gander Center
04:18PM 53.6833 -55.5167 243° Southwest 430 495 43,000  Level Gander Center
04:19PM 53.6167 -55.7000 239° Southwest 430 495 43,000  Level Gander Center
04:20PM 53.5667 -55.8833 245° Southwest 430 495 43,000  Level Gander Center
04:21PM 53.5000 -56.0500 236° Southwest 430 495 43,000  Level Gander Center
04:22PM 53.4333 -56.2333 239° Southwest 430 495 43,000  Level Gander Center
04:23PM 53.4000 -56.4000 252° West 420 483 43,000  Level Gander Center
04:24PM 53.3333 -56.5833 239° Southwest 430 495 43,000  Level Gander Center
04:25PM 53.2833 -56.7500 243° Southwest 430 495 43,000  Level Gander Center
04:26PM 53.2167 -56.9167 236° Southwest 430 495 43,000  Level Gander Center
04:27PM 53.1500 -57.1000 239° Southwest 430 495 43,000  Level Gander Center
04:28PM 53.1000 -57.2667 244° Southwest 430 495 43,000  Level Gander Center
04:29PM 53.0333 -57.4500 239° Southwest 430 495 43,000  Level Gander Center
04:30PM 52.9833 -57.6167 244° Southwest 430 495 43,000  Level Gander Center
04:31PM 52.9333 -57.7833 244° Southwest 430 495 43,000  Level Gander Center
04:32PM 52.8667 -57.9500 237° Southwest 430 495 43,000  Level Gander Center
04:33PM 52.8000 -58.1333 239° Southwest 430 495 43,000  Level Gander Center
04:34PM 52.7333 -58.3000 237° Southwest 430 495 43,000  Level Gander Center
04:35PM 52.6833 -58.4667 244° Southwest 430 495 43,000  Level Gander Center
04:36PM 52.6167 -58.6333 237° Southwest 430 495 43,000  Level Gander Center
04:37PM 52.5667 -58.8000 244° Southwest 420 483 43,000  Level Gander Center
04:38PM 52.5000 -58.9667 237° Southwest 430 495 43,000  Level Gander Center
04:39PM 52.4333 -59.1500 239° Southwest 430 495 43,000  Level Gander Center
04:40PM 52.3833 -59.3333 246° West 430 495 43,000  Level Gander Center
04:41PM 52.3167 -59.4833 234° Southwest 430 495 43,000  Level Gander Center
04:42PM 52.2500 -59.6500 237° Southwest 430 495 43,000  Level Gander Center
04:43PM 52.1833 -59.8333 239° Southwest 430 495 43,000  Level Gander Center
04:44PM 52.1333 -59.9667 239° Southwest 430 495 43,000  Level Gander Center
04:45PM 52.0667 -60.1667 242° Southwest 430 495 43,000  Level Gander Center
04:46PM 52.0000 -60.3333 237° Southwest 430 495 43,000  Level Gander Center
04:47PM 51.9167 -60.5500 238° Southwest 430 495 43,000  Level Moncton Center
04:48PM 51.8667 -60.6667 235° Southwest 430 495 43,000  Level Gander Center
04:49PM 51.8000 -60.8167 234° Southwest 430 495 43,000  Level Gander Center
04:50PM 51.7333 -60.9833 237° Southwest 430 495 43,000  Level Gander Center
04:51PM 51.6667 -61.1833 242° Southwest 430 495 43,000  Level Moncton Center
04:52PM 51.6167 -61.3167 239° Southwest 430 495 43,000  Level Gander Center
04:53PM 51.5500 -61.4667 234° Southwest 430 495 43,000  Level Gander Center
04:54PM 51.4833 -61.6333 237° Southwest 430 495 43,000  Level Gander Center
04:55PM 51.4167 -61.7833 235° Southwest 430 495 43,000  Level Gander Center
04:56PM 51.3500 -61.9500 237° Southwest 430 495 43,000  Level Gander Center
04:57PM 51.3000 -62.1167 244° Southwest 430 495 43,000  Level Gander Center
04:58PM 51.2333 -62.2667 235° Southwest 420 483 43,000  Level Gander Center
04:59PM 51.1667 -62.4333 238° Southwest 420 483 43,000  Level Gander Center
05:00PM 51.1000 -62.5833 235° Southwest 420 483 43,000  Level Gander Center
05:01PM 51.0500 -62.7167 239° Southwest 420 483 43,000  Level Gander Center
05:02PM 50.9833 -62.9000 240° Southwest 420 483 43,000  Level Gander Center
05:03PM 50.9167 -63.0333 232° Southwest 420 483 43,000  Level Gander Center
05:04PM 50.8333 -63.1833 229° Southwest 420 483 43,000  Level Gander Center
05:05PM 50.7667 -63.3500 238° Southwest 420 483 43,000  Level Gander Center
05:06PM 50.7000 -63.5000 235° Southwest 420 483 43,000  Level Gander Center
05:07PM 50.6500 -63.6500 242° Southwest 410 472 43,000  Level Gander Center
05:08PM 50.5833 -63.7833 232° Southwest 410 472 43,000  Level Gander Center
05:09PM 50.5000 -63.9333 229° Southwest 420 483 43,000  Level Gander Center
05:10PM 50.4500 -64.1000 245° Southwest 420 483 43,000  Level Gander Center
05:11PM 50.3833 -64.2500 235° Southwest 420 483 43,000  Level Gander Center
05:12PM 50.3167 -64.4000 235° Southwest 420 483 43,000  Level Gander Center
05:13PM 50.2500 -64.5500 235° Southwest 420 483 43,000  Level Gander Center
05:14PM 50.1833 -64.7000 235° Southwest 420 483 43,000  Level Gander Center
05:15PM 50.1167 -64.8333 232° Southwest 420 483 43,000  Level Gander Center
05:16PM 50.0500 -65.0000 238° Southwest 410 472 43,000  Level Gander Center
05:17PM 49.9667 -65.1333 226° Southwest 410 472 43,000  Level Gander Center
05:18PM 49.9167 -65.2833 243° Southwest 420 483 43,000  Level Gander Center
05:19PM 49.8500 -65.4333 235° Southwest 420 483 43,000  Level Gander Center
05:20PM 49.7667 -65.5833 229° Southwest 420 483 43,000  Level Gander Center
05:21PM 49.7000 -65.7333 236° Southwest 420 483 43,000  Level Gander Center
05:22PM 49.6500 -65.8500 237° Southwest 420 483 43,000  Level Gander Center
05:23PM 49.5667 -66.0333 235° Southwest 420 483 43,000  Level Gander Center
05:24PM 49.5000 -66.1500 229° Southwest 410 472 43,000  Level Gander Center
05:25PM 49.4167 -66.3000 230° Southwest 410 472 43,000  Level Gander Center
05:26PM 49.3667 -66.4500 243° Southwest 410 472 43,000 -60 Level Gander Center
05:27PM 49.3000 -66.5667 229° Southwest 410 472 42,900  Descending Gander Center
05:28PM 49.2167 -66.7167 230° Southwest 410 472 43,000  Climbing Gander Center
05:29PM 49.1667 -66.8500 240° Southwest 410 472 42,900  Descending Gander Center
05:30PM 49.0833 -67.0000 230° Southwest 410 472 43,000  Climbing Gander Center
05:31PM 49.0167 -67.1167 229° Southwest 410 472 43,000  Level Gander Center
05:32PM 48.9667 -67.2667 243° Southwest 410 472 43,000 -60 Level Gander Center
05:33PM 48.8833 -67.4167 230° Southwest 410 472 42,900  Descending Gander Center
05:34PM 48.8167 -67.5500 233° Southwest 410 472 43,000  Climbing Gander Center
05:35PM 48.7500 -67.7000 236° Southwest 410 472 43,000  Level Gander Center
05:36PM 48.6833 -67.8167 229° Southwest 410 472 43,000  Level Gander Center
05:37PM 48.6000 -67.9667 230° Southwest 410 472 43,000  Level Gander Center
05:38PM 48.5500 -68.1000 241° Southwest 410 472 43,000  Level Gander Center
05:39PM 48.4667 -68.2500 230° Southwest 410 472 43,000  Level Gander Center
05:40PM 48.4000 -68.3667 229° Southwest 420 483 43,000  Level Gander Center
05:41PM 48.3333 -68.5000 233° Southwest 410 472 43,000 -60 Level Gander Center
05:42PM 48.2500 -68.6500 230° Southwest 420 483 42,900  Descending Gander Center
05:43PM 48.1833 -68.7833 233° Southwest 420 483 43,000  Climbing Gander Center
05:44PM 48.1000 -68.9167 227° Southwest 420 483 42,900  Descending Gander Center
05:45PM 48.0500 -69.0667 244° Southwest 420 483 43,000  Climbing Gander Center
05:46PM 47.9667 -69.2000 227° Southwest 420 483 42,900  Descending Gander Center
05:47PM 47.9000 -69.3167 230° Southwest 420 483 43,000  Climbing Gander Center
05:48PM 47.8167 -69.4500 227° Southwest 420 483 42,900 -60 Descending Gander Center
05:49PM 47.7333 -69.5833 227° Southwest 420 483 42,900  Level Gander Center
05:50PM 47.6500 -69.7000 223° Southwest 420 483 43,000  Climbing Gander Center
05:51PM 47.5500 -69.7833 209° Southwest 420 483 43,000 -60 Level Gander Center
05:52PM 47.4667 -69.8833 219° Southwest 420 483 42,900  Descending Gander Center
05:53PM 47.3500 -69.9667 206° Southwest 420 483 43,000  Climbing Gander Center
05:54PM 47.2667 -70.0833 224° Southwest 420 483 43,000  Level Gander Center
05:55PM 47.1667 -70.1667 210° Southwest 420 483 43,000  Level Gander Center
05:56PM 47.0667 -70.2500 210° Southwest 410 472 43,000  Level Gander Center
05:57PM 46.9667 -70.3500 214° Southwest 410 472 43,000  Level Gander Center
05:58PM 46.8833 -70.4500 219° Southwest 410 472 43,000 -120 Level Gander Center
05:58PM 46.8456 -70.4789 208° Southwest 416 479 42,900  Descending Boston Center
05:59PM 46.7667 -70.5500 212° Southwest 410 472 43,000 60 Climbing Moncton Center
06:00PM 46.6667 -70.6500 214° Southwest 410 472 43,000  Level Moncton Center
06:01PM 46.5667 -70.7333 210° Southwest 410 472 43,000  Level Moncton Center
06:02PM 46.4833 -70.8167 215° Southwest 420 483 43,000  Level Moncton Center
06:03PM 46.3667 -70.9333 215° Southwest 420 483 43,000  Level Moncton Center
06:04PM 46.2667 -71.0167 210° Southwest 420 483 43,000  Level Moncton Center
06:05PM 46.1833 -71.1000 215° Southwest 410 472 43,000  Level Moncton Center
06:06PM 46.0833 -71.1833 210° Southwest 410 472 43,000  Level Moncton Center
06:07PM 45.9833 -71.2833 215° Southwest 410 472 43,000  Level Moncton Center
06:08PM 45.9000 -71.3667 215° Southwest 420 483 43,000  Level Moncton Center
06:09PM 45.7833 -71.4500 206° Southwest 420 483 43,000  Level Moncton Center
06:10PM 45.7000 -71.5333 215° Southwest 420 483 43,000  Level Moncton Center
06:11PM 45.6000 -71.6167 210° Southwest 420 483 43,000  Level Moncton Center
06:11PM 45.5464 -71.6608 210° Southwest 424 488 43,000  Level Boston Center
06:12PM 45.4667 -71.6833 191° South 420 483 43,000  Level Montreal Center
06:13PM 45.3833 -71.7667 215° Southwest 410 472 43,000  Level Montreal Center
06:14PM 45.2667 -71.8333 202° Southwest 400 460 43,000  Level Montreal Center
06:15PM 45.1667 -71.9000 205° Southwest 410 472 43,000  Level Montreal Center
06:16PM 45.0500 -71.9667 202° Southwest 410 472 43,000  Level Montreal Center
06:17PM 44.9333 -71.9167 163° South 440 506 43,000  Level Montreal Center
06:18PM 44.8167 -71.9833 202° Southwest 420 483 43,000  Level Montreal Center
06:19PM 44.7672 -72.0131 203° Southwest 416 479 43,000  Level Boston Center
06:20PM 44.6553 -72.0669 199° South 422 486 43,000  Level Boston Center
06:21PM 44.5444 -72.1167 198° South 418 481 43,000  Level Boston Center
06:22PM 44.4364 -72.1644 198° South 409 471 43,000  Level Boston Center
06:23PM 44.3281 -72.2131 198° South 405 466 43,000  Level Boston Center
06:24PM 44.2181 -72.2611 197° South 411 473 43,000  Level Boston Center
06:25PM 44.1086 -72.3122 199° South 412 474 43,000  Level Boston Center
06:26PM 43.9792 -72.3686 197° South 405 466 43,000  Level Boston Center
06:27PM 43.8803 -72.4142 198° South 414 476 43,000  Level Boston Center
06:28PM 43.7703 -72.4625 198° South 417 480 43,000  Level Boston Center
06:29PM 43.6622 -72.5100 198° South 409 471 43,000 480 Level Boston Center
06:30PM 43.5322 -72.5667 198° South 409 471 44,000 720 Climbing Boston Center
06:31PM 43.4247 -72.6139 198° South 406 467 44,500 480 Climbing Boston Center
06:32PM 43.3164 -72.6606 197° South 408 470 45,000 240 Climbing Boston Center
06:33PM 43.2108 -72.7058 197° South 403 464 45,000  Level Boston Center
06:34PM 43.0931 -72.7558 197° South 398 458 45,000  Level Boston Center
06:35PM 42.9864 -72.8017 197° South 400 460 45,000  Level Boston Center
06:36PM 42.8822 -72.8528 200° South 399 459 45,000  Level Boston Center
06:37PM 42.7825 -72.9219 207° Southwest 383 441 45,000 -60 Level Boston Center
06:38PM 42.6844 -72.9894 207° Southwest 391 450 44,900  Descending Boston Center
06:39PM 42.5853 -73.0561 206° Southwest 395 455 45,000  Climbing Boston Center
06:40PM 42.4897 -73.1192 206° Southwest 393 452 45,000  Level Boston Center
06:41PM 42.3936 -73.1825 206° Southwest 392 451 45,000  Level Boston Center
06:42PM 42.2975 -73.2458 206° Southwest 390 449 45,000  Level Boston Center
06:43PM 42.1828 -73.3208 206° Southwest 385 443 45,000  Level Boston Center
06:44PM 42.0822 -73.3872 206° Southwest 385 443 45,000  Level Boston Center
06:45PM 41.9892 -73.4472 206° Southwest 390 449 45,000  Level Boston Center
06:46PM 41.8919 -73.5097 206° Southwest 389 448 45,000  Level Boston Center
06:47PM 41.7953 -73.5733 206° Southwest 389 448 45,000  Level Boston Center
06:48PM 41.6986 -73.6342 205° Southwest 386 444 45,000  Level Boston Center
06:49PM 41.6017 -73.6969 206° Southwest 386 444 45,000 -60 Level Boston Center
06:50PM 41.5133 -73.7550 206° Southwest 383 441 44,900 -60 Descending New York Center
06:51PM 41.4286 -73.8092 206° Southwest 383 441 44,900  Level New York Center
06:52PM 41.3292 -73.8683 204° Southwest 388 447 44,900  Level New York Center
06:53PM 41.2317 -73.9328 206° Southwest 388 447 44,900  Level New York Center
06:54PM 41.1342 -73.9942 205° Southwest 393 452 44,900  Level New York Center
06:55PM 41.0367 -74.0583 206° Southwest 388 447 44,900  Level New York Center
06:56PM 40.9414 -74.1169 205° Southwest 388 447 44,900  Level New York Center
06:57PM 40.8458 -74.1753 205° Southwest 388 447 44,900  Level New York Center
06:58PM 40.7336 -74.2381 203° Southwest 388 447 44,900  Level New York Center
06:59PM 40.6403 -74.2989 206° Southwest 388 447 44,900  Level New York Center
07:00PM 40.5403 -74.3594 205° Southwest 388 447 44,900  Level New York Center
07:01PM 40.4469 -74.4200 206° Southwest 388 447 45,000  Climbing New York Center
07:03PM 40.3144 -74.5000 205° Southwest 378 435 44,900 -60 Descending Boston Center
07:04PM 40.1994 -74.5694 205° Southwest 379 436 44,900  Level Boston Center
07:05PM 40.1019 -74.6283 205° Southwest 383 441 45,000  Climbing Boston Center
07:05PM 40.0453 -74.6619 204° Southwest 382 440 45,000 -60 Level Washington Center
07:07PM 39.9519 -74.7200 205° Southwest 382 440 44,900  Descending Washington Center
07:07PM 39.8525 -74.7781 204° Southwest 382 440 45,000  Climbing Washington Center
07:08PM 39.7486 -74.8414 205° Southwest 382 440 45,000  Level Washington Center
07:09PM 39.6553 -74.9017 206° Southwest 382 440 45,000 -300 Level Washington Center
07:10PM 39.5536 -74.9592 204° Southwest 387 445 44,500 -780 Descending Washington Center
07:12PM 39.4600 -75.0192 206° Southwest 387 445 43,500 -780 Descending Washington Center
07:13PM 39.3644 -75.0736 204° Southwest 381 438 43,000 -240 Descending Washington Center
07:14PM 39.2708 -75.1331 206° Southwest 376 433 43,100  Climbing Washington Center
07:14PM 39.1772 -75.1872 204° Southwest 376 433 43,000 -60 Descending Washington Center
07:15PM 39.0817 -75.2439 205° Southwest 381 438 43,000  Level Washington Center
07:16PM 38.9900 -75.2978 205° Southwest 381 438 43,000  Level Washington Center
07:18PM 38.8983 -75.3517 205° Southwest 381 438 43,000  Level Washington Center
07:18PM 38.8047 -75.4053 204° Southwest 375 432 43,000  Level Washington Center
07:19PM 38.7131 -75.4614 206° Southwest 375 432 43,000  Level Washington Center
07:21PM 38.6194 -75.5172 205° Southwest 375 432 43,000  Level Washington Center
07:21PM 38.5256 -75.5678 203° Southwest 375 432 43,000  Level Washington Center
07:22PM 38.4339 -75.6261 206° Southwest 375 432 43,000  Level Washington Center
07:23PM 38.3400 -75.6792 204° Southwest 375 432 43,000  Level Washington Center
07:24PM 38.2461 -75.7292 203° Southwest 380 437 43,000  Level Washington Center
07:26PM 38.1522 -75.7819 204° Southwest 380 437 43,000  Level Washington Center
07:26PM 38.0667 -75.8317 205° Southwest 380 437 43,000  Level Washington Center
07:27PM 37.9747 -75.8867 205° Southwest 380 437 43,000  Level Washington Center
07:28PM 37.8786 -75.9392 203° Southwest 380 437 43,000  Level Washington Center
07:29PM 37.7847 -75.9939 205° Southwest 380 437 43,000  Level Washington Center
07:31PM 37.6947 -76.0536 208° Southwest 380 437 43,000  Level Washington Center
07:31PM 37.6006 -76.1083 205° Southwest 380 437 43,000  Level Washington Center
07:32PM 37.4961 -76.1703 205° Southwest 380 437 43,000  Level Washington Center
07:33PM 37.4061 -76.2061 198° South 380 437 43,000  Level Washington Center
07:34PM 37.3100 -76.2631 205° Southwest 380 437 43,000  Level Washington Center
07:35PM 37.2158 -76.3142 203° Southwest 380 437 43,000  Level Washington Center
07:36PM 37.1194 -76.3681 204° Southwest 380 437 43,000 -480 Level Washington Center
07:38PM 37.0253 -76.4244 206° Southwest 380 437 42,100 -960 Descending Washington Center
07:39PM 36.9267 -76.4778 203° Southwest 380 437 41,100 -1,260 Descending Washington Center
07:39PM 36.8283 -76.5339 205° Southwest 380 437 39,700 -1,560 Descending Washington Center
07:40PM 36.7256 -76.5869 202° Southwest 386 444 38,100 -1,620 Descending Washington Center
07:41PM 36.6228 -76.6503 206° Southwest 386 444 36,500 -1,140 Descending Washington Center
07:43PM 36.5244 -76.7033 203° Southwest 379 436 35,900 -300 Descending Washington Center
07:44PM 36.4278 -76.7561 204° Southwest 379 436 35,900  Level Washington Center
07:44PM 36.3356 -76.8064 204° Southwest 379 436 35,900 -300 Level Washington Center
07:46PM 36.2475 -76.8539 204° Southwest 366 421 35,400 -1,260 Descending Washington Center
07:47PM 36.1553 -76.9014 203° Southwest 361 415 33,400 -1,800 Descending Washington Center
07:47PM 36.0647 -76.9539 205° Southwest 361 415 31,900 -780 Descending Washington Center
07:49PM 35.9703 -77.0061 204° Southwest 361 415 31,900  Level Washington Center
07:50PM 35.8781 -77.0506 201° Southwest 361 415 31,900  Level Washington Center
07:50PM 35.7836 -77.1028 204° Southwest 361 415 31,900  Level Washington Center
07:51PM 35.7119 -77.1422 204° Southwest 351 404 31,900 -780 Level Washington Center
07:52PM 35.6239 -77.1892 203° Southwest 340 391 30,400 -1,560 Descending Washington Center
07:54PM 35.5439 -77.2333 204° Southwest 334 384 28,800 -1,740 Descending Washington Center
07:54PM 35.4683 -77.2753 204° Southwest 319 367 27,000 -2,040 Descending Washington Center
07:55PM 35.3906 -77.3144 202° Southwest 312 359 24,800 -2,580 Descending Washington Center
07:57PM 35.3125 -77.3561 204° Southwest 307 353 21,800 -3,060 Descending Washington Center
07:58PM 35.2306 -77.4000 204° Southwest 312 359 18,700 -3,000 Descending Washington Center
07:59PM 35.1486 -77.4414 202° Southwest 319 367 15,800 -3,000 Descending Washington Center
07:59PM 35.0622 -77.4875 204° Southwest 325 374 12,800 -2,520 Descending Washington Center
08:00PM 34.9822 -77.5314 204° Southwest 325 374 10,900 -1,440 Descending Washington Center
08:01PM 34.8961 -77.5697 200° South 330 380 10,000 -1,020 Descending Washington Center
08:03PM 34.8022 -77.5800 185° South 320 368 8,900 -1,320 Descending Washington Center
08:03PM 34.7244 -77.6061 195° South 309 356 7,400 -1,620 Descending Washington Center
08:04PM 34.6553 -77.6294 196° South 282 325 5,700 -1,680 Descending Washington Center
08:06PM 34.5839 -77.6506 194° South 271 312 4,000 -1,680 Descending Washington Center
08:06PM 34.5147 -77.6739 196° South 264 304 2,400 -1,260 Descending Washington Center
08:07PM 34.4497 -77.6925 193° South 259 298 1,600 -480 Descending Washington Center
08:08PM 34.3947 -77.7264 207° Southwest 240 276 1,500 -60 Descending Washington Center
08:09PM 34.3628 -77.7733 231° Southwest 203 234 1,500  Level Washington Center